Lifter — V2DD4 — position and weather

sailwx.info

Track history (hours):
 
Tides and Currents Weather Stations Pressure Air Temp Water Temp Dewpoint Dewpoint Depression Visibility Wind Speed Wind Dir Waves Ship Positions

Lifter

Last reported at 2018-May-26 23:01 UTC. Time now 2018-Jun-19 04:32 UTC.
Position N 36°27' E 000°25'.
Warning: this ship's position is 23 days out of date.

Length 119 m; draft 5.3 m.

Type: Cargo ship. MMSI: 305175000.

Date/timePositionNaut miles runAvg speedWind from/ knotsBaromVisibWave heightAir tempDewpointWater temp
2018-May-26 23:01N 36°27' E 000°25'015.6
2018-May-26 23:00N 36°27' E 000°25'68 2.1
2018-May-25 14:59N 35°43' W 000°38'417 9.5
2018-May-23 19:04N 36°32' W 009°11'113.1
2018-May-23 19:00N 36°32' W 009°12'6513.1
2018-May-23 14:00N 37°32' W 009°45'4213.5
2018-May-23 10:52N 38°13' W 009°58'513.0
2018-May-23 10:28N 38°18' W 009°60'613.2
2018-May-23 09:59N 38°24' W 010°01'613.3
2018-May-23 09:30N 38°30' W 010°03'713.2
2018-May-23 08:57N 38°38' W 010°05'713.7
2018-May-23 08:27N 38°44' W 010°06'613.8
2018-May-23 08:00N 38°50' W 010°06'713.2
2018-May-23 07:30N 38°57' W 010°06'611.8
2018-May-23 07:00N 39°03' W 010°06'612.1
2018-May-23 06:30N 39°09' W 010°06'612.0
2018-May-23 06:00N 39°15' W 010°06'612.5
2018-May-23 05:29N 39°21' W 010°06'57813.2
2018-May-21 09:43N 48°33' W 006°05'1013.6
2018-May-21 08:58N 48°41' W 005°57'7113.5
2018-May-21 03:44N 49°24' W 004°31'415.3
2018-May-21 03:29N 49°25' W 004°26'715.4
2018-May-21 03:00N 49°29' W 004°16'815.3
2018-May-21 02:29N 49°33' W 004°06'715.1
2018-May-21 02:00N 49°37' W 003°56'714.8
2018-May-21 01:31N 49°41' W 003°46'714.2
2018-May-21 01:00N 49°44' W 003°36'713.8
2018-May-21 00:30N 49°48' W 003°27'713.3
2018-May-21 00:00N 49°51' W 003°18'713.0
2018-May-20 23:30N 49°55' W 003°10'612.6
2018-May-20 23:00N 49°58' W 003°01'612.5
2018-May-20 22:30N 50°01' W 002°52'612.6
2018-May-20 22:00N 50°02' W 002°43'612.9
2018-May-20 21:30N 50°04' W 002°34'713.4
2018-May-20 21:00N 50°06' W 002°24'713.9
2018-May-20 20:30N 50°08' W 002°13'714.7
2018-May-20 20:00N 50°10' W 002°02'815.6
2018-May-20 19:30N 50°12' W 001°51'816.3
2018-May-20 19:00N 50°15' W 001°38'816.7
2018-May-20 18:31N 50°17' W 001°26'917.1
2018-May-20 18:00N 50°19' W 001°13'917.8
2018-May-20 17:30N 50°22' W 000°60'917.2
2018-May-20 17:00N 50°24' W 000°47'816.1
2018-May-20 16:30N 50°26' W 000°35'815.6
2018-May-20 16:00N 50°29' W 000°23'815.0
2018-May-20 15:30N 50°31' W 000°11'714.5
2018-May-20 15:00N 50°33' W 000°00'714.0
2018-May-20 14:30N 50°34' E 000°10'713.4
2018-May-20 14:01N 50°36' E 000°20'713.0
2018-May-20 13:31N 50°38' E 000°30'612.8
2018-May-20 13:00N 50°41' E 000°39'713.2
2018-May-20 12:31N 50°45' E 000°47'714.0
2018-May-20 12:00N 50°49' E 000°57'714.7
2018-May-20 11:30N 50°53' E 001°06'1015.9
2018-May-20 10:55N 50°59' E 001°18'717.2
2018-May-20 10:30N 51°03' E 001°27'917.6
2018-May-20 10:00N 51°09' E 001°37'816.4
2018-May-20 09:30N 51°15' E 001°47'815.6
2018-May-20 09:01N 51°21' E 001°53'714.6
2018-May-20 08:31N 51°28' E 001°59'713.8
2018-May-20 08:00N 51°33' E 002°06'713.4
2018-May-20 07:31N 51°38' E 002°13'713.2
2018-May-20 07:00N 51°43' E 002°20'612.8
2018-May-20 06:31N 51°48' E 002°26'912.5
2018-May-20 05:47N 51°55' E 002°36'312.4
2018-May-20 05:30N 51°58' E 002°39'612.4
2018-May-20 05:00N 52°03' E 002°45'712.4
2018-May-20 04:28N 52°08' E 002°52'612.8
2018-May-20 03:59N 52°13' E 002°59'713.4
2018-May-20 03:26N 52°18' E 003°06'614.1
2018-May-20 03:00N 52°23' E 003°12'814.6
2018-May-20 02:26N 52°30' E 003°20'915.0
2018-May-20 01:51N 52°37' E 003°30'715.2
2018-May-20 01:24N 52°42' E 003°36'19313.9
2018-May-19 11:34N 55°27' E 006°27'514.1
2018-May-19 11:13N 55°31' E 006°31'1014.2
2018-May-19 10:30N 55°40' E 006°41'714.2
2018-May-19 09:58N 55°46' E 006°48'813.9
2018-May-19 09:25N 55°53' E 006°55'6413.7
2018-May-19 04:46N 56°47' E 007°57'414.4
2018-May-19 04:29N 56°50' E 008°01'5813.8
2018-May-19 00:18N 57°29' E 009°20'514.1
2018-May-18 23:56N 57°31' E 009°28'3214.3
2018-May-18 21:41N 57°48' E 010°20'214.2
2018-May-18 21:30N 57°48' E 010°24'714.5
2018-May-18 21:00N 57°49' E 010°38'713.7
2018-May-18 20:31N 57°46' E 010°50'714.6
2018-May-18 20:01N 57°41' E 011°00'714.4
2018-May-18 19:31N 57°37' E 011°10'713.8
2018-May-18 19:00N 57°32' E 011°19'713.6
2018-May-18 18:30N 57°26' E 011°27'713.8
2018-May-18 18:00N 57°20' E 011°32'713.7
2018-May-18 17:30N 57°14' E 011°36'713.6
2018-May-18 17:00N 57°07' E 011°40'713.5
2018-May-18 16:30N 57°01' E 011°45'713.9
2018-May-18 16:00N 56°54' E 011°49'5413.0
2018-May-18 11:49N 56°06' E 012°34'413.5
2018-May-18 11:30N 56°03' E 012°40'713.6
2018-May-18 11:00N 55°56' E 012°44'714.1
2018-May-18 10:30N 55°49' E 012°43'714.4
2018-May-18 10:00N 55°42' E 012°41'714.3
2018-May-18 09:30N 55°35' E 012°42'611.9
2018-May-18 09:01N 55°29' E 012°43'611.8
2018-May-18 08:30N 55°23' E 012°42'611.4
2018-May-18 08:00N 55°18' E 012°45'714.0
2018-May-18 07:30N 55°16' E 012°56'714.2
2018-May-18 07:00N 55°15' E 013°09'914.4
2018-May-18 06:22N 55°15' E 013°25'914.3
2018-May-18 05:42N 55°14' E 013°41'414.4
2018-May-18 05:26N 55°14' E 013°48'714.3
2018-May-18 04:58N 55°14' E 014°00'814.4
2018-May-18 04:23N 55°14' E 014°15'513.3
2018-May-18 04:00N 55°17' E 014°22'714.4
2018-May-18 03:30N 55°22' E 014°30'714.4
2018-May-18 03:00N 55°28' E 014°39'714.3
2018-May-18 02:30N 55°31' E 014°50'714.3
2018-May-18 02:00N 55°35' E 015°00'714.3
2018-May-18 01:30N 55°38' E 015°11'714.2
2018-May-18 01:00N 55°42' E 015°22'714.2
2018-May-18 00:30N 55°45' E 015°33'714.3
2018-May-18 00:00N 55°49' E 015°45'714.4
2018-May-17 23:30N 55°52' E 015°56'714.6
2018-May-17 23:00N 55°56' E 016°07'714.4
2018-May-17 22:30N 55°60' E 016°18'714.6
2018-May-17 22:00N 56°03' E 016°29'714.5
2018-May-17 21:30N 56°07' E 016°40'714.4
2018-May-17 21:00N 56°12' E 016°51'714.3
2018-May-17 20:30N 56°16' E 017°01'814.2
2018-May-17 19:58N 56°20' E 017°12'1214.3
2018-May-17 19:08N 56°28' E 017°29'1314.3
2018-May-17 18:14N 56°35' E 017°48'414.4
2018-May-17 17:59N 56°37' E 017°53'17014.4
2018-May-17 06:08N 58°50' E 021°12'214.1
2018-May-17 06:00N 58°52' E 021°14'714.1
2018-May-17 05:30N 58°58' E 021°22'714.1
2018-May-17 05:00N 59°04' E 021°30'714.1
2018-May-17 04:30N 59°09' E 021°38'713.9
2018-May-17 04:00N 59°14' E 021°49'714.0
2018-May-17 03:30N 59°18' E 021°60'1014.1
2018-May-17 02:49N 59°23' E 022°15'414.1
2018-May-17 02:30N 59°26' E 022°22'714.1
2018-May-17 02:00N 59°30' E 022°33'713.8
2018-May-17 01:30N 59°32' E 022°46'714.1
2018-May-17 01:00N 59°34' E 022°60'714.3
2018-May-17 00:31N 59°36' E 023°13'714.2
2018-May-17 00:01N 59°38' E 023°26'714.1
2018-May-16 23:31N 59°40' E 023°40'  
Track history (hours):
 
Tides and Currents Weather Stations Pressure Air Temp Water Temp Dewpoint Dewpoint Depression Visibility Wind Speed Wind Dir Waves Ship Positions

Lifter

Last reported at 2018-May-26 23:01 UTC. Time now 2018-Jun-19 04:32 UTC.
Position N 36°27' E 000°25'.
Warning: this ship's position is 23 days out of date.

Length 119 m; draft 5.3 m.

Type: Cargo ship. MMSI: 305175000.

Date/timePositionNaut miles runAvg speedWind from/ knotsBaromVisibWave heightAir tempDewpointWater temp
2018-May-26 23:01N 36°27' E 000°25'015.6
2018-May-26 23:00N 36°27' E 000°25'68 2.1
2018-May-25 14:59N 35°43' W 000°38'417 9.5
2018-May-23 19:04N 36°32' W 009°11'113.1
2018-May-23 19:00N 36°32' W 009°12'6513.1
2018-May-23 14:00N 37°32' W 009°45'4213.5
2018-May-23 10:52N 38°13' W 009°58'513.0
2018-May-23 10:28N 38°18' W 009°60'613.2
2018-May-23 09:59N 38°24' W 010°01'613.3
2018-May-23 09:30N 38°30' W 010°03'713.2
2018-May-23 08:57N 38°38' W 010°05'713.7
2018-May-23 08:27N 38°44' W 010°06'613.8
2018-May-23 08:00N 38°50' W 010°06'713.2
2018-May-23 07:30N 38°57' W 010°06'611.8
2018-May-23 07:00N 39°03' W 010°06'612.1
2018-May-23 06:30N 39°09' W 010°06'612.0
2018-May-23 06:00N 39°15' W 010°06'612.5
2018-May-23 05:29N 39°21' W 010°06'57813.2
2018-May-21 09:43N 48°33' W 006°05'1013.6
2018-May-21 08:58N 48°41' W 005°57'7113.5
2018-May-21 03:44N 49°24' W 004°31'415.3
2018-May-21 03:29N 49°25' W 004°26'715.4
2018-May-21 03:00N 49°29' W 004°16'815.3
2018-May-21 02:29N 49°33' W 004°06'715.1
2018-May-21 02:00N 49°37' W 003°56'714.8
2018-May-21 01:31N 49°41' W 003°46'714.2
2018-May-21 01:00N 49°44' W 003°36'713.8
2018-May-21 00:30N 49°48' W 003°27'713.3
2018-May-21 00:00N 49°51' W 003°18'713.0
2018-May-20 23:30N 49°55' W 003°10'612.6
2018-May-20 23:00N 49°58' W 003°01'612.5
2018-May-20 22:30N 50°01' W 002°52'612.6
2018-May-20 22:00N 50°02' W 002°43'612.9
2018-May-20 21:30N 50°04' W 002°34'713.4
2018-May-20 21:00N 50°06' W 002°24'713.9
2018-May-20 20:30N 50°08' W 002°13'714.7
2018-May-20 20:00N 50°10' W 002°02'815.6
2018-May-20 19:30N 50°12' W 001°51'816.3
2018-May-20 19:00N 50°15' W 001°38'816.7
2018-May-20 18:31N 50°17' W 001°26'917.1
2018-May-20 18:00N 50°19' W 001°13'917.8
2018-May-20 17:30N 50°22' W 000°60'917.2
2018-May-20 17:00N 50°24' W 000°47'816.1
2018-May-20 16:30N 50°26' W 000°35'815.6
2018-May-20 16:00N 50°29' W 000°23'815.0
2018-May-20 15:30N 50°31' W 000°11'714.5
2018-May-20 15:00N 50°33' W 000°00'714.0
2018-May-20 14:30N 50°34' E 000°10'713.4
2018-May-20 14:01N 50°36' E 000°20'713.0
2018-May-20 13:31N 50°38' E 000°30'612.8
2018-May-20 13:00N 50°41' E 000°39'713.2
2018-May-20 12:31N 50°45' E 000°47'714.0
2018-May-20 12:00N 50°49' E 000°57'714.7
2018-May-20 11:30N 50°53' E 001°06'1015.9
2018-May-20 10:55N 50°59' E 001°18'717.2
2018-May-20 10:30N 51°03' E 001°27'917.6
2018-May-20 10:00N 51°09' E 001°37'816.4
2018-May-20 09:30N 51°15' E 001°47'815.6
2018-May-20 09:01N 51°21' E 001°53'714.6
2018-May-20 08:31N 51°28' E 001°59'713.8
2018-May-20 08:00N 51°33' E 002°06'713.4
2018-May-20 07:31N 51°38' E 002°13'713.2
2018-May-20 07:00N 51°43' E 002°20'612.8
2018-May-20 06:31N 51°48' E 002°26'912.5
2018-May-20 05:47N 51°55' E 002°36'312.4
2018-May-20 05:30N 51°58' E 002°39'612.4
2018-May-20 05:00N 52°03' E 002°45'712.4
2018-May-20 04:28N 52°08' E 002°52'612.8
2018-May-20 03:59N 52°13' E 002°59'713.4
2018-May-20 03:26N 52°18' E 003°06'614.1
2018-May-20 03:00N 52°23' E 003°12'814.6
2018-May-20 02:26N 52°30' E 003°20'915.0
2018-May-20 01:51N 52°37' E 003°30'715.2
2018-May-20 01:24N 52°42' E 003°36'19313.9
2018-May-19 11:34N 55°27' E 006°27'514.1
2018-May-19 11:13N 55°31' E 006°31'1014.2
2018-May-19 10:30N 55°40' E 006°41'714.2
2018-May-19 09:58N 55°46' E 006°48'813.9
2018-May-19 09:25N 55°53' E 006°55'6413.7
2018-May-19 04:46N 56°47' E 007°57'414.4
2018-May-19 04:29N 56°50' E 008°01'5813.8
2018-May-19 00:18N 57°29' E 009°20'514.1
2018-May-18 23:56N 57°31' E 009°28'3214.3
2018-May-18 21:41N 57°48' E 010°20'214.2
2018-May-18 21:30N 57°48' E 010°24'714.5
2018-May-18 21:00N 57°49' E 010°38'713.7
2018-May-18 20:31N 57°46' E 010°50'714.6
2018-May-18 20:01N 57°41' E 011°00'714.4
2018-May-18 19:31N 57°37' E 011°10'713.8
2018-May-18 19:00N 57°32' E 011°19'713.6
2018-May-18 18:30N 57°26' E 011°27'713.8
2018-May-18 18:00N 57°20' E 011°32'713.7
2018-May-18 17:30N 57°14' E 011°36'713.6
2018-May-18 17:00N 57°07' E 011°40'713.5
2018-May-18 16:30N 57°01' E 011°45'713.9
2018-May-18 16:00N 56°54' E 011°49'5413.0
2018-May-18 11:49N 56°06' E 012°34'413.5
2018-May-18 11:30N 56°03' E 012°40'713.6
2018-May-18 11:00N 55°56' E 012°44'714.1
2018-May-18 10:30N 55°49' E 012°43'714.4
2018-May-18 10:00N 55°42' E 012°41'714.3
2018-May-18 09:30N 55°35' E 012°42'611.9
2018-May-18 09:01N 55°29' E 012°43'611.8
2018-May-18 08:30N 55°23' E 012°42'611.4
2018-May-18 08:00N 55°18' E 012°45'714.0
2018-May-18 07:30N 55°16' E 012°56'714.2
2018-May-18 07:00N 55°15' E 013°09'914.4
2018-May-18 06:22N 55°15' E 013°25'914.3
2018-May-18 05:42N 55°14' E 013°41'414.4
2018-May-18 05:26N 55°14' E 013°48'714.3
2018-May-18 04:58N 55°14' E 014°00'814.4
2018-May-18 04:23N 55°14' E 014°15'513.3
2018-May-18 04:00N 55°17' E 014°22'714.4
2018-May-18 03:30N 55°22' E 014°30'714.4
2018-May-18 03:00N 55°28' E 014°39'714.3
2018-May-18 02:30N 55°31' E 014°50'714.3
2018-May-18 02:00N 55°35' E 015°00'714.3
2018-May-18 01:30N 55°38' E 015°11'714.2
2018-May-18 01:00N 55°42' E 015°22'714.2
2018-May-18 00:30N 55°45' E 015°33'714.3
2018-May-18 00:00N 55°49' E 015°45'714.4
2018-May-17 23:30N 55°52' E 015°56'714.6
2018-May-17 23:00N 55°56' E 016°07'714.4
2018-May-17 22:30N 55°60' E 016°18'714.6
2018-May-17 22:00N 56°03' E 016°29'714.5
2018-May-17 21:30N 56°07' E 016°40'714.4
2018-May-17 21:00N 56°12' E 016°51'714.3
2018-May-17 20:30N 56°16' E 017°01'814.2
2018-May-17 19:58N 56°20' E 017°12'1214.3
2018-May-17 19:08N 56°28' E 017°29'1314.3
2018-May-17 18:14N 56°35' E 017°48'414.4
2018-May-17 17:59N 56°37' E 017°53'17014.4
2018-May-17 06:08N 58°50' E 021°12'214.1
2018-May-17 06:00N 58°52' E 021°14'714.1
2018-May-17 05:30N 58°58' E 021°22'714.1
2018-May-17 05:00N 59°04' E 021°30'714.1
2018-May-17 04:30N 59°09' E 021°38'713.9
2018-May-17 04:00N 59°14' E 021°49'714.0
2018-May-17 03:30N 59°18' E 021°60'1014.1
2018-May-17 02:49N 59°23' E 022°15'414.1
2018-May-17 02:30N 59°26' E 022°22'714.1
2018-May-17 02:00N 59°30' E 022°33'713.8
2018-May-17 01:30N 59°32' E 022°46'714.1
2018-May-17 01:00N 59°34' E 022°60'714.3
2018-May-17 00:31N 59°36' E 023°13'714.2
2018-May-17 00:01N 59°38' E 023°26'714.1
2018-May-16 23:31N 59°40' E 023°40'  

Dump ship's entire track history